Terminal Aerodrome Forecast
Issued by NWS Jackson, MS

Home | Current Version | Previous Version | Text Only | Print | Product List | Glossary On
Versions: 1 2 3 4 5 6 7 8 9 10 11 12 13 14 15
000
FTUS44 KJAN 222336
TAFGWO
TAF
KGWO 222336Z 2300/2324 30005KT P6SM -RA FEW009 BKN015
     FM230200 30005KT P6SM BKN025
     FM230400 32006KT P6SM FEW025 BKN035
     FM230600 31003KT P6SM FEW007 OVC015
     FM230800 30003KT P6SM OVC007
     FM231300 32007KT P6SM BKN015
     FM231500 32010G16KT P6SM FEW025=

USA.gov is the U.S. government's official web portal to all federal, state and local government web resources and services.